Address 0x2081fb8de7001b75d5ca516e4f2dd1b273aee9a5

 
 
Txn Hash Method
Block
From
To
Value [Txn Fee]
0x19427e19f6798a61d7456f3788523e429ac91879605c84f4e537347f6015c8deTransfer109613082021-09-16 10:00:528 days 1 hr ago0x2081fb8de7001b75d5ca516e4f2dd1b273aee9a5OUT0x3eea25b963d8fb76ef1fa3e0390d517891bf50970.013069495634 BNB0.000105
0x92bcf033a81643e2d575925a6c276198b668a36e123b892cce98900320b52067Transfer97666662021-08-05 10:28:2550 days 54 mins ago0x2081fb8de7001b75d5ca516e4f2dd1b273aee9a5OUT CryptoBlades: SKILL Token0 BNB0.00019596
0x55b5c31ed6246818a74accf9e1ef24134aba2048622f4a34e96e1cb34bfcbebeChange Listing P...97103292021-08-03 9:54:1052 days 1 hr ago0x2081fb8de7001b75d5ca516e4f2dd1b273aee9a5OUT 0x90099da42806b21128a094c713347c7885af79e20 BNB0.00018107
0x230bf43272b6061ee0b80cec251c18cbe99d73e4ef14054b017c026f0d459d23Change Listing P...97103292021-08-03 9:54:1052 days 1 hr ago0x2081fb8de7001b75d5ca516e4f2dd1b273aee9a5OUT 0x90099da42806b21128a094c713347c7885af79e20 BNB0.00018107
0x903705df953035bec9e1b793f3fe566db155aa2a05e864875b955ff14d0bc560Change Listing P...97103292021-08-03 9:54:1052 days 1 hr ago0x2081fb8de7001b75d5ca516e4f2dd1b273aee9a5OUT 0x90099da42806b21128a094c713347c7885af79e20 BNB0.00018107
0x4e54240b403c5cf9a47e4a2a794bf2c3dd67e48964b09b8a59c6820a91584078Change Listing P...97103292021-08-03 9:54:1052 days 1 hr ago0x2081fb8de7001b75d5ca516e4f2dd1b273aee9a5OUT 0x90099da42806b21128a094c713347c7885af79e20 BNB0.00018107
0x36b22fa13f8dc1e7e6b9a57b1f6141aba0b9e01df2a70ca2c6dba655984da13fAdd Listing96964162021-08-02 21:22:3252 days 14 hrs ago0x2081fb8de7001b75d5ca516e4f2dd1b273aee9a5OUT 0x90099da42806b21128a094c713347c7885af79e20 BNB0.00110422
0x1d4522a45ca1bd4ada9a9a274e61d5da3f4a1d238c7ccf949badd43e18f48396Add Listing96964152021-08-02 21:22:2952 days 14 hrs ago0x2081fb8de7001b75d5ca516e4f2dd1b273aee9a5OUT 0x90099da42806b21128a094c713347c7885af79e20 BNB0.00122122
0x7bd38ba81ab11d09b33e60b567368e09b7bb2b70d450d233b9d442e50328cce4Add Listing96964132021-08-02 21:22:2352 days 14 hrs ago0x2081fb8de7001b75d5ca516e4f2dd1b273aee9a5OUT 0x90099da42806b21128a094c713347c7885af79e20 BNB0.00122122
0x034d1996f480e4fa2bffdfe21136b8491e8b53ca50aba4b4da185ee9261fab4eAdd Listing96964132021-08-02 21:22:2352 days 14 hrs ago0x2081fb8de7001b75d5ca516e4f2dd1b273aee9a5OUT 0x90099da42806b21128a094c713347c7885af79e20 BNB0.00131722
0xdcdac70489416460d158e99982dd67c92a4a7a7ee395658baa946ed2414b8a89Approve96964122021-08-02 21:22:2052 days 14 hrs ago0x2081fb8de7001b75d5ca516e4f2dd1b273aee9a5OUT 0xc6f252c2cdd4087e30608a35c022ce490b58179b0 BNB0.000266905
0xfe3c72c9fe32a44d0158138a814609f5ceadfac58bb99df038b134d4cd3d3494Approve96964112021-08-02 21:22:1752 days 14 hrs ago0x2081fb8de7001b75d5ca516e4f2dd1b273aee9a5OUT 0xc6f252c2cdd4087e30608a35c022ce490b58179b0 BNB0.000266905
0x06d10a765cd6fb9ce79f4440e4cbcd5aabbd98c7c1bc2802cf2f08f1c6bccec8Approve96964092021-08-02 21:22:1152 days 14 hrs ago0x2081fb8de7001b75d5ca516e4f2dd1b273aee9a5OUT 0xc6f252c2cdd4087e30608a35c022ce490b58179b0 BNB0.000266905
0xfeff52cf6aaa62074211feccfd2aac5daf55b1b955e8ca1e73539bfc62c12bc6Approve96964082021-08-02 21:22:0852 days 14 hrs ago0x2081fb8de7001b75d5ca516e4f2dd1b273aee9a5OUT 0xc6f252c2cdd4087e30608a35c022ce490b58179b0 BNB0.000266905
0xd78bdae0a733def5f11f51291427788867a8f9172c3b6818a2a93a8bf2083009Claim Xp Rewards96963782021-08-02 21:20:3852 days 14 hrs ago0x2081fb8de7001b75d5ca516e4f2dd1b273aee9a5OUT CryptoBlades: Gameplay0 BNB0.00143112
0xf02a19c9a61da636fac504bbe7fbd648582fe722d7faf17a9187811e328d9ca1Claim Token Rewa...96963772021-08-02 21:20:3552 days 14 hrs ago0x2081fb8de7001b75d5ca516e4f2dd1b273aee9a5OUT CryptoBlades: Gameplay0 BNB0.000269745
0xbe38b52c36a9eb2f7e4bf9cd03b4745e27c4069c950f84b78bfb3310e53a24d4Fight96516982021-08-01 6:43:0954 days 4 hrs ago0x2081fb8de7001b75d5ca516e4f2dd1b273aee9a5OUT CryptoBlades: Gameplay0 BNB0.0008191
0x17cc16f1709ef1e196e3cbaaa164f2a69573a4e488119fac45bd8af92f2a4d3eFight96516922021-08-01 6:42:5154 days 4 hrs ago0x2081fb8de7001b75d5ca516e4f2dd1b273aee9a5OUT CryptoBlades: Gameplay0 BNB0.000819595
0x23524f58ad78e6dd35339bc6f7cebb4f945cf99d45fb6fb054fdf5c96c7afc50Fight96516852021-08-01 6:42:3054 days 4 hrs ago0x2081fb8de7001b75d5ca516e4f2dd1b273aee9a5OUT CryptoBlades: Gameplay0 BNB0.0008191
0x8b5664714e4cc8249ed4a91926db2aba33bb81ef2fc08079143a02c01b500918Fight96516792021-08-01 6:42:1254 days 4 hrs ago0x2081fb8de7001b75d5ca516e4f2dd1b273aee9a5OUT CryptoBlades: Gameplay0 BNB0.000820865
0x2d862c006628f9c3e3ba087bc0ab35320ab650a579167a7a380c62548f4f05ceFight96491662021-08-01 4:36:0854 days 6 hrs ago0x2081fb8de7001b75d5ca516e4f2dd1b273aee9a5OUT CryptoBlades: Gameplay0 BNB0.000824775
0x9951d46561489add0a0d53f1c42a4b9c51f242f563a94c0c2d68e299a1543b32Fight96491602021-08-01 4:35:5054 days 6 hrs ago0x2081fb8de7001b75d5ca516e4f2dd1b273aee9a5OUT CryptoBlades: Gameplay0 BNB0.000819705
0x51de4a3c4eaf14363c8f2167902a95e386d57ed4ef6411eecf3380d67991c0e5Fight96491532021-08-01 4:35:2954 days 6 hrs ago0x2081fb8de7001b75d5ca516e4f2dd1b273aee9a5OUT CryptoBlades: Gameplay0 BNB0.00082025
0x7654d3fa067f476af18193bc645799c52f03469b13c46334441c30e947637d3aFight96491462021-08-01 4:35:0854 days 6 hrs ago0x2081fb8de7001b75d5ca516e4f2dd1b273aee9a5OUT CryptoBlades: Gameplay0 BNB0.000784025
0x5b079a46c6d7d80e3a8acab5dca8b56d6c206195d830d4b67f8637888de3f10aFight96442532021-08-01 0:22:0554 days 11 hrs ago0x2081fb8de7001b75d5ca516e4f2dd1b273aee9a5OUT CryptoBlades: Gameplay0 BNB0.000819655
[ Download CSV Export 
Parent Txn Hash Block From To Value
Loading

Contract Name:
0 BNB

Compiler Version
0

Optimization Enabled:
0 BNB

Other Settings:
-NA-
Block Transaction Gas Used Reward
Age Block Fee Address BC Fee Address Voting Power Jailed Incoming
Block Uncle Number Difficulty Gas Used Reward
Loading
Loading
Make sure to use the "Vote Down" button for any spammy posts, and the "Vote Up" for interesting conversations.